Time;durP1;ratioP1;P1;durP2;ratioP2;P2;SDS_P1;SDS_P2;PMS_P1;PMS_P2;Temp;Humidity;BMP_temperature;BMP_pressure;BME280_temperature;BME280_humidity;BME280_pressure;Samples;Min_cycle;Max_cycle;Signal;HPM_P1;HPM_P2
2023/11/11 00:00:48;;;;;;;5.15;3.20;;;;;;;12.53;60.84;98508.84;6168537;23;20020;-93
2023/11/11 00:03:17;;;;;;;4.72;2.80;;;;;;;12.67;60.50;98537.72;6167298;23;20000;-92
2023/11/11 00:05:43;;;;;;;5.38;2.75;;;;;;;12.58;60.39;98510.63;6167905;23;20058;-92
2023/11/11 00:08:09;;;;;;;3.25;2.70;;;;;;;12.68;60.08;98506.91;6168007;23;20001;-91
2023/11/11 00:10:35;;;;;;;5.15;2.67;;;;;;;12.70;59.87;98496.56;6168154;23;20004;-93
2023/11/11 00:13:03;;;;;;;4.75;3.10;;;;;;;12.59;60.39;98485.22;6144883;23;20004;-92
2023/11/11 00:15:32;;;;;;;4.53;3.13;;;;;;;12.67;60.22;98503.41;6171793;23;19997;-92
2023/11/11 00:17:59;;;;;;;5.18;2.85;;;;;;;12.88;59.89;98522.66;6168929;23;20008;-93
2023/11/11 00:20:26;;;;;;;4.05;2.83;;;;;;;12.68;59.93;98496.13;6169410;23;20435;-93
2023/11/11 00:22:52;;;;;;;5.63;3.10;;;;;;;12.80;59.94;98492.88;6146504;23;20066;-92
2023/11/11 00:25:18;;;;;;;4.30;2.90;;;;;;;12.94;59.76;98505.22;6169079;23;20000;-93
2023/11/11 00:27:44;;;;;;;4.57;2.80;;;;;;;12.85;59.45;98498.97;6144074;23;20466;-92
2023/11/11 00:30:11;;;;;;;5.10;2.85;;;;;;;12.86;59.52;98487.03;6144003;23;19997;-91
2023/11/11 00:32:36;;;;;;;5.10;2.88;;;;;;;12.98;59.20;98500.00;6144412;23;20001;-92
2023/11/11 00:35:02;;;;;;;5.10;2.78;;;;;;;12.95;59.44;98479.03;6143724;23;20007;-92
2023/11/11 00:37:28;;;;;;;6.18;2.88;;;;;;;13.05;59.29;98486.88;6144699;23;20038;-93
2023/11/11 00:39:55;;;;;;;4.15;2.83;;;;;;;13.10;59.34;98478.66;6168915;23;20003;-93
2023/11/11 00:42:21;;;;;;;4.88;2.72;;;;;;;13.17;59.06;98489.03;6169205;23;20079;-93
2023/11/11 00:44:48;;;;;;;5.07;2.75;;;;;;;13.04;59.07;98454.75;6144126;23;19996;-92
2023/11/11 00:47:14;;;;;;;6.07;2.70;;;;;;;13.13;58.80;98458.31;6168281;23;20005;-92
2023/11/11 00:49:42;;;;;;;5.65;2.60;;;;;;;13.17;59.10;98463.91;6162946;23;20576;-92
2023/11/11 00:52:08;;;;;;;4.90;2.83;;;;;;;13.23;58.77;98462.69;6164541;23;20432;-92
2023/11/11 00:54:34;;;;;;;5.75;3.03;;;;;;;13.23;58.53;98459.97;6163209;23;20066;-91
2023/11/11 00:57:00;;;;;;;4.25;2.67;;;;;;;13.36;58.40;98469.94;6138437;23;20021;-92
2023/11/11 00:59:30;;;;;;;4.88;3.10;;;;;;;13.34;58.35;98458.63;6162769;23;20459;-91
2023/11/11 01:01:59;;;;;;;4.38;2.70;;;;;;;13.27;58.64;98437.41;6164109;23;20344;-91
2023/11/11 01:04:25;;;;;;;3.70;2.80;;;;;;;13.33;58.64;98441.63;6141314;23;20030;-91
2023/11/11 01:06:51;;;;;;;3.90;2.67;;;;;;;13.41;58.28;98447.41;6163599;23;20005;-92
2023/11/11 01:09:16;;;;;;;4.57;3.17;;;;;;;13.27;58.24;98413.09;6163816;23;20332;-91
2023/11/11 01:11:42;;;;;;;5.57;2.67;;;;;;;13.34;58.49;98423.47;6163551;23;20004;-92
2023/11/11 01:14:08;;;;;;;4.85;2.78;;;;;;;13.31;58.25;98411.38;6164841;23;20024;-92
2023/11/11 01:16:33;;;;;;;4.68;3.08;;;;;;;13.32;58.10;98404.88;6138583;23;20001;-92
2023/11/11 01:18:59;;;;;;;5.15;2.97;;;;;;;13.38;57.94;98391.22;6163215;23;20001;-93
2023/11/11 01:21:25;;;;;;;3.70;2.88;;;;;;;13.40;57.89;98397.91;6163456;23;19997;-91
2023/11/11 01:23:53;;;;;;;3.88;2.72;;;;;;;13.52;57.84;98400.03;6139576;23;20448;-92
2023/11/11 01:26:19;;;;;;;4.18;2.28;;;;;;;13.45;57.86;98378.06;6164252;23;20001;-93
2023/11/11 01:28:44;;;;;;;3.95;2.50;;;;;;;13.41;57.81;98375.19;6163858;23;20436;-92
2023/11/11 01:31:10;;;;;;;4.68;2.35;;;;;;;13.47;57.36;98383.97;6188884;23;20329;-91
2023/11/11 01:33:36;;;;;;;4.82;2.70;;;;;;;13.59;57.17;98394.97;6188870;23;19997;-93
2023/11/11 01:36:04;;;;;;;4.38;2.25;;;;;;;13.51;57.20;98374.91;6163462;23;20081;-93
2023/11/11 01:38:30;;;;;;;4.95;2.70;;;;;;;13.56;57.17;98379.38;6141371;23;20001;-92
2023/11/11 01:40:56;;;;;;;5.80;2.45;;;;;;;13.45;57.55;98373.44;6163184;23;20021;-92
2023/11/11 01:43:22;;;;;;;4.00;2.50;;;;;;;13.51;57.28;98383.03;6139501;23;20059;-93
2023/11/11 01:45:47;;;;;;;6.60;2.83;;;;;;;13.45;57.55;98380.78;6139815;23;20008;-93
2023/11/11 01:48:13;;;;;;;2.88;2.40;;;;;;;13.42;57.51;98365.16;6164275;23;19997;-94
2023/11/11 01:50:41;;;;;;;4.45;2.60;;;;;;;13.47;57.67;98365.81;6138752;23;20104;-92
2023/11/11 01:53:07;;;;;;;4.80;2.75;;;;;;;13.32;58.20;98344.59;6164924;23;20076;-92
2023/11/11 01:55:36;;;;;;;4.22;2.78;;;;;;;13.43;58.09;98364.06;6163191;23;20087;-92
2023/11/11 01:58:02;;;;;;;3.60;2.22;;;;;;;13.35;58.12;98335.88;6141251;23;20044;-95
2023/11/11 02:00:28;;;;;;;4.60;2.60;;;;;;;13.37;58.15;98332.84;6140291;23;20004;-96
2023/11/11 02:02:54;;;;;;;6.70;2.60;;;;;;;13.38;58.31;98337.13;6164958;23;20089;-95
2023/11/11 02:05:22;;;;;;;11.98;2.65;;;;;;;13.29;58.77;98318.97;6140271;23;20004;-96
2023/11/11 02:07:53;;;;;;;4.13;2.70;;;;;;;13.23;58.58;98314.78;6144146;23;20000;-96
2023/11/11 02:10:20;;;;;;;4.93;2.80;;;;;;;13.30;58.68;98341.41;6150558;23;20001;-96
2023/11/11 02:12:46;;;;;;;3.40;2.47;;;;;;;13.27;58.73;98331.97;6144870;23;19993;-95
2023/11/11 02:15:15;;;;;;;6.07;2.75;;;;;;;13.23;59.06;98335.63;6144530;23;20009;-95
2023/11/11 02:17:42;;;;;;;3.92;2.60;;;;;;;13.17;58.98;98347.69;6170355;23;20047;-95
2023/11/11 02:20:11;;;;;;;3.85;2.65;;;;;;;13.21;59.12;98346.75;6169326;23;20028;-94
2023/11/11 02:22:41;;;;;;;3.33;2.70;;;;;;;13.16;59.12;98336.06;6164347;23;20001;-93
2023/11/11 02:25:10;;;;;;;3.90;2.45;;;;;;;13.05;58.71;98311.22;6165061;23;20001;-95
2023/11/11 02:27:37;;;;;;;2.95;2.50;;;;;;;13.10;58.63;98327.28;6164972;23;20005;-95
2023/11/11 02:30:03;;;;;;;3.28;2.50;;;;;;;13.36;58.27;98347.47;6164418;23;20007;-94
2023/11/11 02:32:30;;;;;;;5.65;3.13;;;;;;;13.11;58.46;98319.97;6188635;23;20079;-95
2023/11/11 02:34:56;;;;;;;3.63;2.58;;;;;;;13.25;58.26;98333.41;6188494;23;20103;-95
2023/11/11 02:37:22;;;;;;;4.68;2.50;;;;;;;13.26;58.04;98345.81;6164285;23;20016;-94
2023/11/11 02:39:48;;;;;;;4.47;2.63;;;;;;;13.15;57.59;98318.25;6187873;23;20005;-94
2023/11/11 02:42:13;;;;;;;3.00;2.20;;;;;;;13.29;58.09;98335.19;6163354;23;20419;-95
2023/11/11 02:44:39;;;;;;;4.13;2.45;;;;;;;13.15;57.77;98310.16;6163304;23;20455;-94
2023/11/11 02:47:05;;;;;;;4.45;2.42;;;;;;;13.19;57.84;98313.81;6163510;23;20001;-95
2023/11/11 02:49:33;;;;;;;4.45;2.40;;;;;;;13.17;57.58;98315.25;6168817;23;20086;-95
2023/11/11 02:51:59;;;;;;;4.00;2.63;;;;;;;13.37;57.58;98338.25;6168759;23;20000;-95
2023/11/11 02:54:25;;;;;;;3.33;2.63;;;;;;;13.22;57.83;98325.91;6219132;23;20390;-94
2023/11/11 02:56:51;;;;;;;4.28;2.45;;;;;;;13.31;57.17;98341.09;6193187;23;19997;-94
2023/11/11 02:59:16;;;;;;;3.30;2.30;;;;;;;13.30;57.57;98344.91;6168546;23;20036;-95
2023/11/11 03:01:42;;;;;;;6.72;2.47;;;;;;;13.37;57.52;98354.50;6194119;23;19996;-94
2023/11/11 03:04:08;;;;;;;5.90;2.30;;;;;;;13.30;57.17;98336.00;6167843;23;19996;-94
2023/11/11 03:06:41;;;;;;;4.13;2.38;;;;;;;13.27;57.53;98336.59;6194115;23;19997;-95
2023/11/11 03:09:07;;;;;;;4.05;2.28;;;;;;;13.24;57.26;98320.97;6194006;23;20005;-95
2023/11/11 03:11:32;;;;;;;4.78;2.63;;;;;;;13.33;57.59;98332.69;6144040;23;20520;-95
2023/11/11 03:14:00;;;;;;;5.68;2.20;;;;;;;13.30;57.40;98330.59;6168164;23;20067;-95
2023/11/11 03:16:36;;;;;;;4.25;2.20;;;;;;;13.37;57.54;98339.06;6167863;23;20004;-95
2023/11/11 03:19:05;;;;;;;3.80;2.50;;;;;;;13.43;57.32;98351.31;6168700;23;19997;-94
2023/11/11 03:21:33;;;;;;;4.15;2.50;;;;;;;13.38;57.12;98323.63;6168740;23;19997;-95
2023/11/11 03:23:59;;;;;;;4.65;2.80;;;;;;;13.37;57.20;98330.94;6142449;23;20004;-96
2023/11/11 03:26:27;;;;;;;3.97;2.40;;;;;;;13.45;57.21;98332.09;6142655;23;20013;-95
2023/11/11 03:28:53;;;;;;;3.67;2.58;;;;;;;13.40;56.69;98316.00;6142894;23;20000;-94
2023/11/11 03:31:19;;;;;;;4.03;2.80;;;;;;;13.50;56.76;98331.94;6143748;23;20015;-94
2023/11/11 03:33:48;;;;;;;4.60;2.80;;;;;;;13.52;56.77;98344.03;6143719;23;20359;-94
2023/11/11 03:36:16;;;;;;;10.23;3.08;;;;;;;13.44;57.25;98336.69;6145226;23;20000;-95
2023/11/11 03:38:42;;;;;;;4.82;2.42;;;;;;;13.47;56.98;98332.59;6167694;23;20004;-96
2023/11/11 03:41:07;;;;;;;4.47;2.65;;;;;;;13.59;56.93;98348.97;6168928;23;20396;-94
2023/11/11 03:43:35;;;;;;;3.60;2.28;;;;;;;13.49;56.93;98336.56;6192440;23;20412;-95
2023/11/11 03:46:03;;;;;;;8.02;2.70;;;;;;;13.53;57.20;98345.63;6145451;23;20139;-95
2023/11/11 03:48:28;;;;;;;5.05;2.67;;;;;;;13.57;56.82;98337.69;6143219;23;20039;-90
2023/11/11 03:50:55;;;;;;;5.03;3.58;;;;;;;13.48;56.92;98321.44;6188352;23;20017;-90
2023/11/11 03:53:21;;;;;;;6.25;2.90;;;;;;;13.62;56.85;98334.84;6163918;23;20120;-90
2023/11/11 03:55:49;;;;;;;6.97;3.15;;;;;;;13.66;56.49;98340.44;6163749;23;20005;-90
2023/11/11 03:58:14;;;;;;;4.63;2.90;;;;;;;13.62;56.89;98328.66;6163207;23;20023;-90
2023/11/11 04:00:44;;;;;;;3.90;2.63;;;;;;;13.59;56.67;98321.16;6162901;23;20001;-90
2023/11/11 04:03:11;;;;;;;5.50;2.28;;;;;;;13.63;56.53;98320.19;6188833;23;20074;-90
2023/11/11 04:05:36;;;;;;;5.68;2.85;;;;;;;13.79;56.34;98334.09;6189269;23;20413;-90
2023/11/11 04:08:03;;;;;;;5.93;2.33;;;;;;;13.76;56.36;98326.63;6187442;23;20063;-90
2023/11/11 04:10:30;;;;;;;5.47;2.42;;;;;;;13.66;56.53;98294.44;6138858;23;20031;-91
2023/11/11 04:12:56;;;;;;;7.40;2.33;;;;;;;13.73;56.63;98303.66;6139261;23;20011;-90
2023/11/11 04:15:22;;;;;;;2.80;2.30;;;;;;;13.79;56.34;98298.13;6162934;23;20059;-90
2023/11/11 04:17:48;;;;;;;4.20;2.22;;;;;;;13.92;56.88;98326.94;6162768;23;19996;-90
2023/11/11 04:20:14;;;;;;;2.67;2.22;;;;;;;13.78;56.66;98302.75;6138007;23;20004;-90
2023/11/11 04:22:40;;;;;;;3.58;2.17;;;;;;;13.77;56.30;98298.44;6138806;23;20438;-90
2023/11/11 04:25:07;;;;;;;4.20;2.50;;;;;;;13.78;56.37;98291.09;6188004;23;20001;-91
2023/11/11 04:27:33;;;;;;;3.95;2.33;;;;;;;13.72;56.77;98269.63;6138490;23;20008;-90
2023/11/11 04:29:59;;;;;;;4.80;2.55;;;;;;;13.76;56.72;98267.09;6187149;23;20035;-90
2023/11/11 04:32:26;;;;;;;2.50;2.08;;;;;;;13.93;56.50;98294.16;6162379;23;20005;-89
2023/11/11 04:34:51;;;;;;;3.53;2.10;;;;;;;13.75;57.01;98254.66;6162792;23;20008;-89
2023/11/11 04:37:17;;;;;;;2.72;2.10;;;;;;;13.87;57.25;98262.16;6187484;23;19997;-89
2023/11/11 04:39:45;;;;;;;5.18;2.60;;;;;;;13.84;57.01;98287.13;6162791;23;20059;-89
2023/11/11 04:42:16;;;;;;;3.95;2.00;;;;;;;13.73;56.81;98275.81;6164043;23;20003;-91
2023/11/11 04:44:42;;;;;;;3.03;2.30;;;;;;;13.63;56.88;98265.31;6140524;23;20008;-90
2023/11/11 04:47:08;;;;;;;3.63;2.15;;;;;;;13.82;57.26;98294.78;6138347;23;19997;-90
2023/11/11 04:49:34;;;;;;;3.20;2.17;;;;;;;13.70;57.20;98282.69;6144042;23;20013;-90
2023/11/11 04:51:59;;;;;;;2.30;2.00;;;;;;;13.68;57.04;98278.69;6143372;23;20395;-91
2023/11/11 04:54:26;;;;;;;4.15;2.45;;;;;;;13.63;56.94;98278.84;6168131;23;20050;-91
2023/11/11 04:56:54;;;;;;;5.63;2.53;;;;;;;13.49;57.18;98254.66;6166893;23;20333;-90
2023/11/11 04:59:20;;;;;;;3.42;2.40;;;;;;;13.43;57.40;98259.41;6168512;23;20000;-90
2023/11/11 05:01:45;;;;;;;3.97;2.30;;;;;;;13.53;57.45;98288.06;6142912;23;20086;-90
2023/11/11 05:04:11;;;;;;;3.17;2.38;;;;;;;13.66;57.50;98306.06;6192375;23;20000;-90
2023/11/11 05:06:37;;;;;;;6.28;2.35;;;;;;;13.57;57.00;98296.31;6192382;23;20001;-90
2023/11/11 05:09:04;;;;;;;3.25;1.90;;;;;;;13.51;56.78;98287.56;6218061;23;20000;-90
2023/11/11 05:11:30;;;;;;;2.80;1.88;;;;;;;13.56;56.58;98279.31;6142709;23;20001;-90
2023/11/11 05:13:56;;;;;;;3.25;2.25;;;;;;;13.48;56.78;98270.03;6167795;23;20005;-90
2023/11/11 05:16:27;;;;;;;2.72;2.40;;;;;;;13.53;57.14;98280.72;6142723;23;20386;-90
2023/11/11 05:18:53;;;;;;;2.67;2.15;;;;;;;13.58;56.64;98276.28;6170813;23;19997;-89
2023/11/11 05:21:19;;;;;;;3.97;2.63;;;;;;;13.59;57.23;98280.56;6168261;23;20017;-90
2023/11/11 05:23:46;;;;;;;3.97;1.98;;;;;;;13.75;56.94;98297.94;6167473;23;20001;-89
2023/11/11 05:26:13;;;;;;;4.50;2.70;;;;;;;13.57;57.19;98266.56;6168441;23;20020;-91
2023/11/11 05:28:41;;;;;;;4.35;2.40;;;;;;;13.62;57.40;98288.06;6168988;23;20005;-91
2023/11/11 05:31:06;;;;;;;3.88;2.00;;;;;;;13.66;57.21;98297.16;6219706;23;20320;-90
2023/11/11 05:33:32;;;;;;;4.63;2.42;;;;;;;13.76;56.76;98313.09;6192060;23;20124;-90
2023/11/11 05:35:59;;;;;;;4.25;2.35;;;;;;;13.71;56.61;98300.47;6167064;23;20421;-91
2023/11/11 05:38:26;;;;;;;3.25;2.25;;;;;;;13.68;56.79;98289.50;6142935;23;20005;-90
2023/11/11 05:40:52;;;;;;;2.90;1.88;;;;;;;13.63;56.51;98278.84;6142678;23;20436;-90
2023/11/11 05:43:17;;;;;;;4.35;2.30;;;;;;;13.59;56.54;98275.94;6192310;23;20067;-91
2023/11/11 05:45:44;;;;;;;3.15;1.92;;;;;;;13.65;57.09;98276.59;6167458;23;20344;-90
2023/11/11 05:48:10;;;;;;;6.28;2.50;;;;;;;13.77;57.07;98293.03;6142239;23;20123;-90
2023/11/11 05:50:36;;;;;;;2.55;2.10;;;;;;;13.77;56.63;98289.53;6138050;23;20017;-90
2023/11/11 05:53:01;;;;;;;2.97;2.17;;;;;;;13.80;56.02;98289.69;6162226;23;20016;-94
2023/11/11 05:55:28;;;;;;;7.20;2.85;;;;;;;13.90;56.13;98296.69;6136450;23;20344;-90
2023/11/11 05:57:54;;;;;;;3.60;2.58;;;;;;;13.95;55.79;98299.25;6137943;23;20325;-91
2023/11/11 06:00:19;;;;;;;7.00;2.92;;;;;;;13.93;55.50;98277.91;6161578;23;20001;-90
2023/11/11 06:02:45;;;;;;;2.75;1.95;;;;;;;14.06;55.43;98284.28;6136340;23;20344;-90
2023/11/11 06:05:10;;;;;;;4.55;2.58;;;;;;;14.18;55.08;98278.25;6138093;23;20008;-90
2023/11/11 06:07:36;;;;;;;3.88;1.88;;;;;;;14.26;54.72;98276.66;6186551;23;20004;-89
2023/11/11 06:10:04;;;;;;;4.03;2.10;;;;;;;14.13;54.97;98249.44;6162308;23;20091;-91
2023/11/11 06:12:30;;;;;;;4.43;2.40;;;;;;;14.15;54.58;98252.63;6161328;23;20071;-91
2023/11/11 06:14:57;;;;;;;3.92;2.70;;;;;;;14.26;54.77;98268.53;6186505;23;20091;-90
2023/11/11 06:17:23;;;;;;;6.20;2.25;;;;;;;14.27;55.11;98267.41;6163148;23;19997;-90
2023/11/11 06:19:48;;;;;;;5.68;2.35;;;;;;;14.41;54.57;98278.88;6186800;23;20001;-90
2023/11/11 06:22:17;;;;;;;3.03;2.08;;;;;;;14.46;54.21;98283.31;6161153;23;20429;-91
2023/11/11 06:24:43;;;;;;;3.92;2.25;;;;;;;14.29;54.50;98257.06;6186679;23;19996;-89
2023/11/11 06:27:09;;;;;;;4.07;2.40;;;;;;;14.39;54.27;98267.56;6189027;23;20344;-90
2023/11/11 06:29:35;;;;;;;4.40;2.40;;;;;;;14.51;54.13;98277.75;6161667;23;20403;-90
2023/11/11 06:32:00;;;;;;;4.05;2.20;;;;;;;14.45;54.69;98265.50;6161468;23;19997;-90
2023/11/11 06:34:26;;;;;;;3.20;2.03;;;;;;;14.56;54.23;98253.22;6160306;23;20424;-91
2023/11/11 06:36:51;;;;;;;3.20;2.28;;;;;;;14.50;54.22;98236.31;6136655;23;20001;-89
2023/11/11 06:39:17;;;;;;;7.05;2.63;;;;;;;14.49;54.42;98240.13;6186360;23;20005;-90
2023/11/11 06:41:43;;;;;;;3.92;2.40;;;;;;;14.62;54.28;98249.22;6161915;23;20003;-89
2023/11/11 06:44:08;;;;;;;7.80;3.33;;;;;;;14.66;54.51;98230.41;6160966;23;19997;-90
2023/11/11 06:46:34;;;;;;;6.32;3.20;;;;;;;14.66;54.36;98233.13;6185965;23;20004;-89
2023/11/11 06:48:59;;;;;;;4.00;2.55;;;;;;;14.73;54.43;98245.06;6186763;23;20000;-90
2023/11/11 06:51:25;;;;;;;3.72;2.25;;;;;;;14.81;54.25;98265.09;6186813;23;20012;-90
2023/11/11 06:53:52;;;;;;;6.25;2.92;;;;;;;14.75;54.62;98259.09;6188636;23;20430;-90
2023/11/11 06:56:18;;;;;;;9.07;4.15;;;;;;;14.78;55.07;98246.00;6137753;23;20013;-90
2023/11/11 06:58:44;;;;;;;8.65;3.38;;;;;;;14.75;55.62;98255.56;6161751;23;20329;-90
2023/11/11 07:01:09;;;;;;;12.88;4.13;;;;;;;14.69;55.40;98227.03;6160874;23;20041;-90
2023/11/11 07:03:35;;;;;;;3.72;2.90;;;;;;;14.75;55.33;98229.28;6160269;23;20005;-90
2023/11/11 07:06:03;;;;;;;9.00;2.88;;;;;;;14.90;55.83;98240.69;6186180;23;20015;-90
2023/11/11 07:08:28;;;;;;;7.00;3.10;;;;;;;14.92;55.82;98241.97;6137422;23;20443;-90
2023/11/11 07:10:56;;;;;;;5.95;2.90;;;;;;;14.81;56.12;98226.38;6161367;23;20032;-89
2023/11/11 07:13:23;;;;;;;11.48;4.00;;;;;;;14.85;56.16;98243.56;6160609;23;20061;-90
2023/11/11 07:15:49;;;;;;;8.00;3.35;;;;;;;14.88;55.34;98253.75;6162040;23;20001;-89
2023/11/11 07:18:16;;;;;;;11.95;3.75;;;;;;;14.93;55.55;98253.59;6186456;23;20460;-91
2023/11/11 07:20:42;;;;;;;6.50;4.05;;;;;;;15.02;55.61;98258.97;6160828;23;20080;-89
2023/11/11 07:23:11;;;;;;;6.10;3.55;;;;;;;15.03;55.77;98241.59;6160507;23;20001;-91
2023/11/11 07:25:38;;;;;;;8.90;3.30;;;;;;;14.95;55.91;98225.03;6185682;23;20074;-90
2023/11/11 07:28:04;;;;;;;5.57;3.33;;;;;;;14.99;55.81;98210.84;6161757;23;20008;-90
2023/11/11 07:30:30;;;;;;;4.65;2.55;;;;;;;14.94;55.71;98200.97;6136906;23;20443;-90
2023/11/11 07:32:58;;;;;;;3.33;2.50;;;;;;;14.91;55.78;98188.84;6161263;23;20012;-90
2023/11/11 07:35:24;;;;;;;9.60;3.00;;;;;;;14.92;56.18;98195.06;6143058;23;20005;-96
2023/11/11 07:37:50;;;;;;;6.03;2.90;;;;;;;15.02;55.69;98205.53;6191063;23;19996;-96
2023/11/11 07:40:16;;;;;;;7.40;2.78;;;;;;;14.92;55.81;98197.78;6139800;23;20012;-95
2023/11/11 07:42:42;;;;;;;3.60;2.60;;;;;;;14.98;55.55;98196.47;6139933;23;20001;-95
2023/11/11 07:45:09;;;;;;;8.40;3.60;;;;;;;15.06;55.61;98198.34;6138621;23;20057;-94
2023/11/11 07:47:35;;;;;;;9.70;3.10;;;;;;;15.11;55.75;98186.56;6164006;23;20001;-95
2023/11/11 07:50:01;;;;;;;4.55;2.60;;;;;;;15.16;55.28;98179.00;6163610;23;20471;-95
2023/11/11 07:52:27;;;;;;;5.15;2.65;;;;;;;15.36;55.42;98182.88;6188535;23;20005;-94
2023/11/11 07:54:53;;;;;;;7.65;3.28;;;;;;;15.48;55.00;98182.16;6188925;23;20017;-94
2023/11/11 07:57:19;;;;;;;9.80;4.13;;;;;;;15.67;54.82;98189.06;6141888;23;20005;-95
2023/11/11 07:59:44;;;;;;;5.63;3.05;;;;;;;15.77;54.41;98194.09;6165125;23;19997;-95
2023/11/11 08:02:14;;;;;;;19.17;11.57;;;;;;;15.83;54.04;98187.34;6168250;23;20000;-95
2023/11/11 08:04:41;;;;;;;6.38;4.45;;;;;;;15.87;54.26;98168.47;6147428;23;19997;-95
2023/11/11 08:07:09;;;;;;;5.93;3.08;;;;;;;16.03;54.17;98188.44;6144657;23;20005;-93
2023/11/11 08:09:35;;;;;;;4.63;2.35;;;;;;;15.98;53.93;98163.41;6164455;23;19993;-95
2023/11/11 08:12:09;;;;;;;4.30;2.20;;;;;;;16.05;53.66;98163.69;6163085;23;20001;-95
2023/11/11 08:14:35;;;;;;;5.35;2.60;;;;;;;15.95;53.76;98149.38;6189755;23;20008;-96
2023/11/11 08:17:01;;;;;;;7.15;2.40;;;;;;;16.05;53.07;98152.81;6163942;23;20083;-95
2023/11/11 08:19:30;;;;;;;4.78;3.40;;;;;;;16.12;53.39;98163.91;6163690;23;20031;-96
2023/11/11 08:21:55;;;;;;;6.93;2.70;;;;;;;16.23;53.48;98169.72;6162824;23;20001;-95
2023/11/11 08:24:24;;;;;;;4.57;2.35;;;;;;;16.28;53.19;98153.22;6162612;23;20001;-96
2023/11/11 08:26:49;;;;;;;4.57;2.40;;;;;;;16.27;52.75;98138.84;6163838;23;19997;-95
2023/11/11 08:29:15;;;;;;;5.57;2.63;;;;;;;16.28;53.10;98153.22;6163564;23;20043;-95
2023/11/11 08:31:46;;;;;;;3.95;2.50;;;;;;;16.08;53.18;98147.53;6165053;23;20286;-96
2023/11/11 08:34:12;;;;;;;2.33;1.93;;;;;;;16.14;53.14;98154.34;6168626;23;19997;-95
2023/11/11 08:36:37;;;;;;;4.85;2.20;;;;;;;16.00;53.69;98148.41;6167526;23;20232;-95
2023/11/11 08:39:05;;;;;;;5.30;2.47;;;;;;;15.92;54.47;98150.06;6140423;23;20032;-95
2023/11/11 08:41:30;;;;;;;5.95;2.50;;;;;;;16.05;54.21;98167.19;6141621;23;19993;-92
2023/11/11 08:43:56;;;;;;;6.18;2.67;;;;;;;15.89;54.85;98160.78;6164304;23;20008;-95
2023/11/11 08:46:21;;;;;;;4.00;2.38;;;;;;;15.92;55.24;98174.50;6167618;23;20341;-94
2023/11/11 08:48:47;;;;;;;4.35;2.40;;;;;;;15.79;55.59;98151.13;6167787;23;20020;-94
2023/11/11 08:51:13;;;;;;;4.18;2.72;;;;;;;15.71;55.59;98133.00;6168779;23;20024;-95
2023/11/11 08:53:39;;;;;;;4.00;2.70;;;;;;;15.67;55.90;98129.34;6174822;23;19997;-96
2023/11/11 08:56:05;;;;;;;5.13;2.85;;;;;;;15.81;55.84;98138.00;6143686;23;20029;-94
2023/11/11 08:58:31;;;;;;;7.72;3.10;;;;;;;15.72;56.88;98132.66;6141799;23;20008;-96
2023/11/11 09:00:56;;;;;;;4.00;2.63;;;;;;;15.67;56.81;98129.34;6142457;23;20005;-96
2023/11/11 09:03:24;;;;;;;5.38;2.65;;;;;;;15.67;57.53;98132.84;6166735;23;19997;-96
2023/11/11 09:06:19;;;;;;;3.58;3.05;;;;;;;15.57;58.40;98136.75;6172301;23;20067;-96
2023/11/11 09:08:44;;;;;;;6.45;3.33;;;;;;;15.70;58.64;98151.19;6165978;23;20001;-96
2023/11/11 09:11:16;;;;;;;8.13;3.53;;;;;;;15.65;59.05;98118.81;6141821;23;20005;-96
2023/11/11 09:13:41;;;;;;;4.35;2.95;;;;;;;15.59;60.65;98132.94;6143051;23;20075;-96
2023/11/11 09:16:08;;;;;;;6.65;3.17;;;;;;;15.54;61.50;98104.06;6166105;23;20096;-95
2023/11/11 09:18:33;;;;;;;8.93;3.58;;;;;;;15.41;61.88;98092.38;6143045;23;20000;-95
2023/11/11 09:20:59;;;;;;;5.75;3.40;;;;;;;15.45;61.94;98082.44;6143617;23;20008;-95
2023/11/11 09:23:25;;;;;;;5.65;3.60;;;;;;;15.43;62.69;98092.03;6167766;23;20009;-94
2023/11/11 09:25:51;;;;;;;4.22;3.30;;;;;;;15.25;63.56;98083.25;6166310;23;20001;-96
2023/11/11 09:28:20;;;;;;;5.70;3.95;;;;;;;15.20;63.92;98075.31;6144610;23;19997;-92
2023/11/11 09:30:47;;;;;;;5.38;3.75;;;;;;;15.33;64.33;98085.09;6171102;23;20001;-96
2023/11/11 09:33:16;;;;;;;7.38;4.40;;;;;;;15.19;65.45;98062.88;6142785;23;20443;-95
2023/11/11 09:35:51;;;;;;;6.45;3.88;;;;;;;15.11;65.12;98049.06;6144367;23;20004;-96
2023/11/11 09:38:17;;;;;;;3.92;2.90;;;;;;;15.28;64.63;98055.47;6188722;22;20044;-94
2023/11/11 09:40:43;;;;;;;4.75;3.53;;;;;;;15.26;65.11;98055.81;6139855;23;20059;-93
2023/11/11 09:43:09;;;;;;;7.55;4.80;;;;;;;15.15;65.65;98041.84;6139945;23;20001;-94
2023/11/11 09:45:35;;;;;;;5.00;3.42;;;;;;;15.20;64.90;98030.00;6138559;23;20008;-94
2023/11/11 09:48:02;;;;;;;4.65;3.03;;;;;;;14.99;64.74;98024.59;6138651;23;20432;-93
2023/11/11 09:50:27;;;;;;;5.65;3.50;;;;;;;15.09;64.69;98026.13;6164179;23;20069;-94
2023/11/11 09:52:53;;;;;;;6.75;3.42;;;;;;;15.26;65.23;98034.09;6139465;23;20005;-93
2023/11/11 09:55:24;;;;;;;6.47;3.50;;;;;;;15.38;64.72;98029.84;6139838;23;20008;-93
2023/11/11 09:57:53;;;;;;;7.93;5.20;;;;;;;15.28;65.34;98014.81;6139758;23;20005;-93
2023/11/11 10:00:19;;;;;;;8.25;4.32;;;;;;;15.40;64.90;98022.16;6140824;23;20553;-90
2023/11/11 10:02:45;;;;;;;4.80;2.88;;;;;;;15.35;63.88;98010.41;6140108;23;20008;-94
2023/11/11 10:05:10;;;;;;;5.65;3.80;;;;;;;15.14;64.43;97969.75;6139537;23;20005;-93
2023/11/11 10:07:39;;;;;;;5.78;3.60;;;;;;;15.28;64.27;97971.41;6164177;23;20004;-94
2023/11/11 10:10:08;;;;;;;8.15;4.30;;;;;;;15.21;64.24;97966.53;6138400;23;20436;-93
2023/11/11 10:12:35;;;;;;;6.30;3.58;;;;;;;15.04;64.49;97934.94;6140203;23;20012;-94
2023/11/11 10:15:06;;;;;;;5.10;3.63;;;;;;;15.28;63.69;97958.63;6139473;23;20454;-94
2023/11/11 10:17:39;;;;;;;4.53;3.22;;;;;;;15.23;64.24;97948.00;6187258;23;20450;-93
2023/11/11 10:20:13;;;;;;;4.53;3.08;;;;;;;15.35;63.92;97966.22;6162409;23;20004;-93
2023/11/11 10:22:49;;;;;;;3.60;3.05;;;;;;;15.30;63.16;97963.72;6162931;23;20029;-91
2023/11/11 10:25:17;;;;;;;5.97;3.58;;;;;;;15.25;62.98;97950.38;6139991;23;20004;-93
2023/11/11 10:27:49;;;;;;;6.05;4.03;;;;;;;15.41;63.68;97964.88;6139650;23;20001;-94
2023/11/11 10:30:17;;;;;;;5.93;3.30;;;;;;;15.32;62.74;97948.72;6163255;23;20008;-93
2023/11/11 10:32:48;;;;;;;6.75;3.67;;;;;;;15.43;63.15;97954.50;6162967;23;20098;-93
2023/11/11 10:35:17;;;;;;;5.88;3.25;;;;;;;15.28;63.41;97922.59;6140817;23;20348;-93
2023/11/11 10:37:43;;;;;;;4.88;3.92;;;;;;;15.33;63.52;97936.72;6164099;23;20024;-92
2023/11/11 10:40:09;;;;;;;5.10;3.75;;;;;;;15.23;63.30;97906.53;6138234;23;20009;-93
2023/11/11 10:42:35;;;;;;;7.20;3.92;;;;;;;15.21;63.40;97920.44;6137785;23;19997;-92
2023/11/11 10:45:02;;;;;;;5.53;3.25;;;;;;;15.34;62.24;97938.31;6138607;23;19997;-93
2023/11/11 10:47:29;;;;;;;5.65;2.80;;;;;;;15.28;62.82;97934.22;6138229;23;20000;-92
2023/11/11 10:49:55;;;;;;;3.58;2.50;;;;;;;15.22;62.55;97919.31;6162355;23;20001;-93
2023/11/11 10:52:21;;;;;;;5.35;3.17;;;;;;;15.21;62.29;97904.16;6137989;23;20009;-93
2023/11/11 10:54:46;;;;;;;15.13;3.85;;;;;;;15.25;61.87;97910.50;6163231;23;20028;-92
2023/11/11 10:57:13;;;;;;;5.35;3.28;;;;;;;15.35;62.24;97922.81;6138626;23;19997;-92
2023/11/11 10:59:39;;;;;;;4.50;2.92;;;;;;;15.51;61.63;97942.75;6162787;23;20491;-92
2023/11/11 11:02:06;;;;;;;4.18;2.58;;;;;;;15.50;61.63;97918.66;6186808;23;19997;-91
2023/11/11 11:04:32;;;;;;;8.57;5.60;;;;;;;15.56;61.93;97925.47;6186894;23;20004;-90
2023/11/11 11:07:09;;;;;;;5.30;4.55;;;;;;;15.50;62.24;97910.53;6162530;23;20004;-90
2023/11/11 11:09:43;;;;;;;4.97;2.80;;;;;;;15.47;62.32;97898.44;6138302;23;20013;-91
2023/11/11 11:12:15;;;;;;;5.43;2.75;;;;;;;15.63;62.76;97919.50;6138838;23;20001;-91
2023/11/11 11:14:52;;;;;;;3.63;2.47;;;;;;;15.58;62.48;97882.50;6162642;23;19996;-92
2023/11/11 11:17:18;;;;;;;3.78;2.55;;;;;;;15.86;62.40;97881.88;6163074;23;20446;-93
2023/11/11 11:19:55;;;;;;;4.53;2.50;;;;;;;16.01;61.68;97847.81;6138156;23;20440;-94
2023/11/11 11:22:25;;;;;;;3.70;2.67;;;;;;;16.27;61.28;97878.09;6140084;23;20004;-95
2023/11/11 11:24:51;;;;;;;2.70;2.22;;;;;;;16.29;59.64;97891.31;6139867;23;20001;-94
2023/11/11 11:27:17;;;;;;;3.70;2.40;;;;;;;16.29;58.66;97899.47;6162117;23;19981;-94
2023/11/11 11:29:42;;;;;;;5.88;3.85;;;;;;;16.35;58.59;97912.50;6137954;23;20341;-92
2023/11/11 11:32:11;;;;;;;6.53;2.85;;;;;;;16.43;58.08;97904.56;6163454;23;20025;-93